Sand Key, FL current weather conditions

sailwx.info

Wind from 090 at 19 knots gusting 21

Air temperature 23.7° C
Dewpoint 18.9° C

Last reported at 2017-Mar-24 18:50 UTC.
Time now 2017-Mar-24 20:07 UTC

Location: N 24°27' W 081°53'.
View on Google Maps.

See reports from other nearby stations

  
Tides and Currents Weather Stations Pressure Air Temp Water Temp Dewpoint Dewpoint Depression Visibility Wind Speed Wind Dir Waves Ship Positions
date/time (UTC)wind fromknots sea level pressurealtimeterstation pressurevisibilityair tempwater tempwave heightnotes
2017-Mar-24 18:50 090 19 gusting 21 23.7
2017-Mar-24 17:50 080 22 gusting 26 23.1
2017-Mar-24 16:50 090 22 gusting 25 23.3
2017-Mar-24 15:50 090 20 gusting 24 23.5
2017-Mar-24 14:50 100 21 gusting 26 23.1
2017-Mar-24 13:50 090 21 gusting 25 22.6
2017-Mar-24 12:50 080 18 gusting 20 22.5
2017-Mar-24 11:50 080 20 gusting 22 22.5
2017-Mar-24 10:50 080 19 gusting 20 22.6
2017-Mar-24 09:50 090 19 gusting 22 22.5
2017-Mar-24 08:50 080 19 gusting 22 22.0
2017-Mar-24 07:50 080 20 gusting 21 21.9
2017-Mar-24 06:50 080 17 gusting 19 21.7
2017-Mar-24 05:50 060 14 gusting 18 22.4
2017-Mar-24 04:50 080 13 gusting 15 22.4
2017-Mar-24 03:50 080 17 gusting 19 22.7
2017-Mar-24 02:50 070 15 gusting 20 22.9
2017-Mar-24 01:50 060 7 gusting 9 22.4
2017-Mar-24 00:50 080 13 gusting 14 22.1
2017-Mar-23 23:50 060 27 gusting 34 22.4
2017-Mar-23 22:50 080 7 gusting 9 23.8
2017-Mar-23 21:50 090 6 gusting 7 23.8
2017-Mar-23 20:50 030 6 gusting 6 22.7
2017-Mar-23 19:50 030 9 gusting 11 22.4
2017-Mar-23 18:50 030 8 gusting 9 22.1
2017-Mar-23 17:50 040 7 gusting 9 22.1
2017-Mar-23 16:50 040 6 gusting 7 21.7
2017-Mar-23 15:50 030 9 gusting 11 21.6
2017-Mar-23 14:50 040 11 gusting 12 21.5
2017-Mar-23 13:50 040 8 gusting 11 21.3
2017-Mar-23 12:50 040 12 gusting 14 21.2
2017-Mar-23 11:50 030 13 gusting 14 21.0
2017-Mar-23 10:50 030 13 gusting 15 21.1
2017-Mar-23 09:50 020 14 gusting 18 21.1
2017-Mar-23 08:50 010 12 gusting 13 21.3
2017-Mar-23 07:50 010 11 gusting 13 21.5
2017-Mar-23 06:50 020 11 gusting 12 21.6
2017-Mar-23 05:50 010 12 gusting 13 21.7
2017-Mar-23 04:50 010 8 gusting 9 21.8
2017-Mar-23 03:50 020 5 gusting 6 21.7
2017-Mar-23 02:50 360 6 gusting 7 21.7
2017-Mar-23 01:50 360 6 gusting 8 21.6
2017-Mar-23 00:50 010 9 gusting 12 21.8
2017-Mar-22 23:50 010 11 gusting 12 21.9
2017-Mar-22 22:50 020 11 gusting 12 22.0
2017-Mar-22 21:50 020 13 gusting 14 22.2
2017-Mar-22 20:50 030 11 gusting 12 22.1